Time;durP1;ratioP1;P1;durP2;ratioP2;P2;SDS_P1;SDS_P2;PMS_P1;PMS_P2;Temp;Humidity;BMP_temperature;BMP_pressure;BME280_temperature;BME280_humidity;BME280_pressure;Samples;Min_cycle;Max_cycle;Signal;HPM_P1;HPM_P2
2022/06/03 00:00:22;;;;;;;6.90;3.70;;;;;;;24.62;53.96;94949.81;5106716;28;20184;-79
2022/06/03 00:03:21;;;;;;;4.85;3.63;;;;;;;24.61;53.99;94953.44;5094913;28;20254;-79
2022/06/03 00:06:27;;;;;;;6.38;3.50;;;;;;;24.65;54.33;94961.63;5087247;28;20189;-78
2022/06/03 00:09:38;;;;;;;7.68;3.83;;;;;;;24.63;54.23;94966.28;5087595;28;20190;-78
2022/06/03 00:12:20;;;;;;;3.80;3.50;;;;;;;24.60;54.43;94964.09;5088334;28;20190;-77
2022/06/03 00:15:04;;;;;;;6.38;3.75;;;;;;;24.59;54.52;94960.69;5087534;28;20610;-78
2022/06/03 00:17:57;;;;;;;4.38;3.72;;;;;;;24.57;54.77;94956.69;5095397;28;20196;-79
2022/06/03 00:20:40;;;;;;;8.45;3.80;;;;;;;24.56;54.49;94955.09;5103931;28;20185;-76
2022/06/03 00:23:45;;;;;;;3.85;3.45;;;;;;;24.55;54.76;94964.75;5105532;28;20670;-79
2022/06/03 00:26:47;;;;;;;4.40;3.70;;;;;;;24.53;54.95;94957.16;5106485;28;20204;-80
2022/06/03 00:29:25;;;;;;;6.35;3.72;;;;;;;24.49;55.03;94953.38;5106540;28;20191;-79
2022/06/03 00:32:32;;;;;;;9.10;3.70;;;;;;;24.48;55.08;94951.78;5105725;28;20189;-80
2022/06/03 00:35:21;;;;;;;8.73;3.53;;;;;;;24.47;55.16;94959.81;5044405;28;20198;-78
2022/06/03 00:37:54;;;;;;;6.25;4.00;;;;;;;24.44;55.08;94957.66;5044168;28;20201;-78
2022/06/03 00:40:47;;;;;;;4.93;3.70;;;;;;;24.44;55.21;94961.06;5043572;28;20318;-79
2022/06/03 00:43:42;;;;;;;7.38;3.80;;;;;;;24.43;55.50;94958.66;5042476;28;20183;-78
2022/06/03 00:46:40;;;;;;;6.78;3.70;;;;;;;24.41;55.32;94952.84;5043973;28;20325;-78
2022/06/03 00:49:27;;;;;;;6.30;3.60;;;;;;;24.40;55.58;94959.09;5043795;28;20587;-78
2022/06/03 00:52:26;;;;;;;6.18;4.32;;;;;;;24.38;55.47;94959.31;5041424;28;20581;-77
2022/06/03 00:55:10;;;;;;;4.20;3.60;;;;;;;24.37;55.66;94956.88;4965250;28;20194;-79
2022/06/03 00:58:06;;;;;;;7.28;3.45;;;;;;;24.32;55.92;94952.31;4970707;28;20201;-78
2022/06/03 01:00:37;;;;;;;6.32;3.60;;;;;;;24.27;55.66;94950.34;4971450;28;20202;-78
2022/06/03 01:03:32;;;;;;;3.47;3.22;;;;;;;24.31;56.11;94955.13;4969895;28;20198;-78
2022/06/03 01:06:22;;;;;;;4.15;3.75;;;;;;;24.30;55.91;94962.16;4971691;28;20244;-78
2022/06/03 01:09:03;;;;;;;5.10;3.90;;;;;;;24.27;56.03;94952.97;4997094;28;20223;-80
2022/06/03 01:12:02;;;;;;;4.45;3.50;;;;;;;24.14;55.97;94934.00;5029677;28;20666;-79
2022/06/03 01:14:47;;;;;;;6.70;3.72;;;;;;;24.25;55.98;94948.94;5029738;28;20180;-80
2022/06/03 01:17:25;;;;;;;4.40;3.60;;;;;;;24.20;56.08;94947.00;5030238;28;20378;-76
2022/06/03 01:20:10;;;;;;;4.07;3.50;;;;;;;24.20;56.16;94954.81;5030079;28;20202;-79
2022/06/03 01:23:13;;;;;;;7.40;3.72;;;;;;;24.19;56.23;94957.66;5030326;28;20645;-79
2022/06/03 01:25:57;;;;;;;6.80;4.45;;;;;;;24.17;56.36;94947.41;5028324;28;20594;-80
2022/06/03 01:28:48;;;;;;;6.07;3.67;;;;;;;24.15;56.51;94939.00;5029770;28;20230;-78
2022/06/03 01:31:43;;;;;;;5.78;3.83;;;;;;;24.12;56.69;94934.19;5040133;28;20225;-79
2022/06/03 01:34:25;;;;;;;6.25;3.60;;;;;;;24.12;56.49;94939.41;5052533;28;20183;-79
2022/06/03 01:37:09;;;;;;;7.68;3.65;;;;;;;24.08;56.58;94942.69;5071842;28;20563;-80
2022/06/03 01:40:13;;;;;;;6.53;3.83;;;;;;;24.08;56.79;94946.09;5071598;28;20191;-77
2022/06/03 01:43:23;;;;;;;3.95;3.65;;;;;;;24.06;57.00;94942.13;5071711;28;20281;-79
2022/06/03 01:46:08;;;;;;;4.60;3.95;;;;;;;24.02;56.85;94942.53;5073422;28;20186;-79
2022/06/03 01:49:02;;;;;;;6.82;3.92;;;;;;;23.99;57.02;94940.34;5071763;28;20242;-78
2022/06/03 01:51:53;;;;;;;6.55;3.72;;;;;;;23.97;57.23;94944.19;5071763;28;20191;-80
2022/06/03 01:54:53;;;;;;;5.53;3.53;;;;;;;23.95;57.07;94954.06;5071439;28;20190;-78
2022/06/03 01:57:45;;;;;;;8.00;3.67;;;;;;;23.89;57.22;94944.47;5072738;28;20190;-81
2022/06/03 02:00:26;;;;;;;4.40;3.95;;;;;;;23.91;57.45;94947.66;5071863;28;20187;-80
2022/06/03 02:03:20;;;;;;;6.45;3.35;;;;;;;23.90;57.01;94952.09;5071513;28;20661;-79
2022/06/03 02:06:41;;;;;;;5.75;3.55;;;;;;;23.88;57.17;94953.31;5071540;28;20561;-79
2022/06/03 02:09:42;;;;;;;4.68;3.38;;;;;;;23.85;57.40;94956.34;5089603;28;20237;-78
2022/06/03 02:12:41;;;;;;;5.53;4.15;;;;;;;23.78;57.32;94951.16;5091078;28;20189;-78
2022/06/03 02:15:40;;;;;;;4.10;3.70;;;;;;;23.81;57.49;94958.59;5091070;28;20182;-78
2022/06/03 02:18:43;;;;;;;4.70;3.90;;;;;;;23.77;57.55;94960.03;5089562;28;20186;-78
2022/06/03 02:21:45;;;;;;;3.42;3.13;;;;;;;23.73;57.59;94956.25;5091083;28;20228;-79
2022/06/03 02:24:37;;;;;;;3.92;3.47;;;;;;;23.74;57.64;94969.06;5091436;28;20242;-81
2022/06/03 02:27:42;;;;;;;5.85;3.75;;;;;;;23.72;57.92;94963.28;5091204;28;20641;-81
2022/06/03 02:30:30;;;;;;;6.65;3.95;;;;;;;23.66;57.86;94963.31;5089651;28;20194;-78
2022/06/03 02:33:42;;;;;;;5.32;3.95;;;;;;;23.68;57.95;94963.91;5091927;28;20185;-79
2022/06/03 02:36:45;;;;;;;7.65;4.07;;;;;;;23.65;58.21;94970.34;5091537;28;20581;-81
2022/06/03 02:39:30;;;;;;;5.32;3.40;;;;;;;23.63;58.03;94971.56;5057793;28;20232;-77
2022/06/03 02:42:17;;;;;;;4.00;3.65;;;;;;;23.61;58.14;94969.16;5072993;28;20195;-80
2022/06/03 02:45:13;;;;;;;9.50;3.78;;;;;;;23.60;58.25;94971.97;5071181;28;20193;-78
2022/06/03 02:48:03;;;;;;;4.90;3.67;;;;;;;23.57;58.44;94978.41;5074325;28;20245;-78
2022/06/03 02:51:01;;;;;;;5.85;4.00;;;;;;;23.56;58.57;94974.19;5085480;28;20185;-78
2022/06/03 02:54:30;;;;;;;7.65;4.00;;;;;;;23.47;58.42;94960.59;5032233;28;20226;-79
2022/06/03 02:57:34;;;;;;;7.57;3.83;;;;;;;23.51;58.73;94981.88;4970014;28;20190;-79
2022/06/03 03:00:19;;;;;;;8.02;3.83;;;;;;;23.51;58.74;94980.06;4969320;28;20201;-79
2022/06/03 03:03:12;;;;;;;5.60;3.88;;;;;;;23.51;58.55;94980.06;4951195;28;20202;-79
2022/06/03 03:06:04;;;;;;;4.38;3.97;;;;;;;23.50;58.96;94986.31;4950493;28;20201;-80
2022/06/03 03:09:06;;;;;;;7.93;3.80;;;;;;;23.50;58.71;94982.88;4893295;29;20228;-80
2022/06/03 03:12:13;;;;;;;5.68;3.65;;;;;;;23.51;58.72;94979.25;4855315;29;20193;-76
2022/06/03 03:14:55;;;;;;;5.38;3.60;;;;;;;23.51;59.00;94982.66;4856312;29;20743;-77
2022/06/03 03:17:57;;;;;;;7.90;4.40;;;;;;;23.52;59.07;94975.63;4856591;29;20610;-79
2022/06/03 03:20:54;;;;;;;7.00;4.40;;;;;;;23.54;59.05;94977.03;4856224;29;20209;-76
2022/06/03 03:23:48;;;;;;;3.95;3.65;;;;;;;23.58;59.04;94981.84;4856273;29;20197;-79
2022/06/03 03:26:29;;;;;;;8.82;4.15;;;;;;;23.61;59.10;94987.41;4855928;29;20734;-79
2022/06/03 03:29:19;;;;;;;5.68;3.80;;;;;;;23.65;59.05;94990.44;4855935;29;20605;-78
2022/06/03 03:32:09;;;;;;;5.63;4.10;;;;;;;23.69;58.99;94992.41;4948199;28;20201;-78
2022/06/03 03:35:18;;;;;;;9.48;4.13;;;;;;;23.75;59.21;94988.97;4954119;28;20197;-78
2022/06/03 03:38:31;;;;;;;4.68;4.00;;;;;;;23.80;59.15;94993.56;4892912;29;20683;-79
2022/06/03 03:41:36;;;;;;;8.40;4.65;;;;;;;23.76;58.75;94976.72;4893140;29;20235;-79
2022/06/03 03:44:32;;;;;;;4.93;3.70;;;;;;;23.90;59.07;94998.31;4894055;29;20196;-77
2022/06/03 03:47:38;;;;;;;8.30;4.00;;;;;;;23.95;59.23;94996.66;4948072;29;20652;-80
2022/06/03 03:50:38;;;;;;;8.43;3.78;;;;;;;24.02;59.22;94997.41;5005513;28;20187;-78
2022/06/03 03:53:44;;;;;;;6.40;4.03;;;;;;;24.08;59.19;95006.19;5011825;28;20278;-77
2022/06/03 03:56:46;;;;;;;5.25;3.95;;;;;;;24.10;59.60;94995.53;4911455;29;20191;-80
2022/06/03 03:59:53;;;;;;;5.05;4.15;;;;;;;24.20;59.57;95003.69;4906626;29;20188;-81
2022/06/03 04:02:50;;;;;;;7.07;3.88;;;;;;;24.22;59.84;95010.31;4855619;29;20281;-80
2022/06/03 04:05:48;;;;;;;4.22;3.83;;;;;;;24.30;60.03;95009.22;4855717;29;20296;-80
2022/06/03 04:08:47;;;;;;;5.28;4.50;;;;;;;24.35;60.08;95014.59;4855226;29;20237;-81
2022/06/03 04:11:42;;;;;;;5.38;3.83;;;;;;;24.42;60.18;95004.91;4871963;29;20185;-78
2022/06/03 04:14:45;;;;;;;6.57;4.05;;;;;;;24.47;60.15;94999.03;4903963;29;20198;-78
2022/06/03 04:17:54;;;;;;;7.50;3.97;;;;;;;24.55;60.02;94993.53;4949374;29;20208;-77
2022/06/03 04:20:46;;;;;;;12.18;4.38;;;;;;;24.60;60.02;94993.66;4935354;29;20194;-78
2022/06/03 04:23:45;;;;;;;8.27;4.22;;;;;;;24.68;59.62;94996.00;4949052;29;20196;-78
2022/06/03 04:26:41;;;;;;;6.38;4.00;;;;;;;24.78;59.38;94995.50;4937856;29;20197;-80
2022/06/03 04:29:51;;;;;;;8.50;4.45;;;;;;;24.87;59.35;94998.63;4949260;29;20223;-78
2022/06/03 04:32:49;;;;;;;7.22;5.20;;;;;;;24.95;59.08;95003.56;4958822;28;20194;-79
2022/06/03 04:36:14;;;;;;;8.98;4.18;;;;;;;25.04;58.60;95010.09;5030268;28;20203;-81
2022/06/03 04:39:18;;;;;;;9.18;4.47;;;;;;;25.13;58.62;95015.84;4956500;28;20934;-77
2022/06/03 04:42:20;;;;;;;6.97;4.60;;;;;;;25.17;58.37;95014.38;5010940;28;20185;-80
2022/06/03 04:45:35;;;;;;;6.18;3.97;;;;;;;25.30;57.88;95024.69;5011333;28;20775;-77
2022/06/03 04:48:51;;;;;;;6.63;4.00;;;;;;;25.40;58.20;95035.47;4877314;29;20229;-81
2022/06/03 04:51:53;;;;;;;7.00;4.30;;;;;;;25.51;57.78;95039.13;4821748;29;20203;-79
2022/06/03 04:54:53;;;;;;;5.13;3.85;;;;;;;25.60;57.97;95047.47;4817852;29;20195;-81
2022/06/03 04:58:03;;;;;;;6.95;4.05;;;;;;;25.71;57.93;95046.72;4815717;29;20230;-81
2022/06/03 05:00:56;;;;;;;8.52;4.25;;;;;;;25.81;59.67;95049.63;4819352;29;20199;-79
2022/06/03 05:04:10;;;;;;;9.05;3.85;;;;;;;25.96;63.29;95042.16;4819901;29;20214;-83
2022/06/03 05:07:11;;;;;;;15.65;4.28;;;;;;;26.19;63.45;95053.69;4818261;29;20199;-79
2022/06/03 05:10:16;;;;;;;13.93;3.88;;;;;;;26.50;63.41;95052.63;4820013;29;20241;-85
2022/06/03 05:13:21;;;;;;;10.02;3.85;;;;;;;26.95;63.06;95060.69;4763664;30;20255;-84
2022/06/03 05:16:18;;;;;;;7.28;4.05;;;;;;;27.52;63.03;95052.91;4816906;29;20202;-82
2022/06/03 05:19:20;;;;;;;7.00;3.50;;;;;;;28.24;62.18;95060.25;4765861;30;20209;-82
2022/06/03 05:22:18;;;;;;;11.43;4.40;;;;;;;29.05;60.96;95061.69;4691149;30;20211;-82
2022/06/03 05:25:27;;;;;;;9.43;4.13;;;;;;;29.97;58.66;95063.53;4736805;29;20309;-81
2022/06/03 05:28:36;;;;;;;5.05;3.55;;;;;;;30.88;56.48;95054.75;4820035;29;20199;-82
2022/06/03 05:31:48;;;;;;;11.95;3.40;;;;;;;31.84;53.94;95056.97;4765922;30;20597;-79
2022/06/03 05:44:47;;;;;;;5.40;2.90;;;;;;;35.54;45.45;95088.31;4675754;30;20258;-80
2022/06/03 05:50:39;;;;;;;5.25;2.88;;;;;;;37.03;42.18;95076.22;4734503;30;20337;-82
2022/06/03 05:53:18;;;;;;;9.95;3.10;;;;;;;37.73;40.99;95080.41;4746903;30;20209;-82
2022/06/03 05:55:52;;;;;;;3.03;2.60;;;;;;;38.32;39.82;95079.41;4767078;29;20199;-80
2022/06/03 05:58:37;;;;;;;6.32;2.72;;;;;;;38.88;38.74;95077.22;4824910;29;20201;-83
2022/06/03 06:01:21;;;;;;;8.32;2.63;;;;;;;39.46;37.73;95080.75;4891986;29;20192;-79
2022/06/03 06:04:06;;;;;;;3.60;2.80;;;;;;;39.93;36.78;95070.28;4890559;29;20185;-78
2022/06/03 06:06:43;;;;;;;5.05;3.13;;;;;;;40.48;36.20;95064.28;4902492;29;20203;-80
2022/06/03 06:09:35;;;;;;;9.82;3.28;;;;;;;40.99;35.26;95062.59;4911946;29;20227;-78
2022/06/03 06:12:24;;;;;;;9.70;3.30;;;;;;;41.48;34.21;95057.63;4986501;28;20196;-80
2022/06/03 06:15:17;;;;;;;4.30;2.63;;;;;;;41.94;33.82;95051.31;5044707;28;20198;-81
2022/06/03 06:17:55;;;;;;;4.85;2.88;;;;;;;42.38;32.74;95048.28;5071892;28;20193;-78
2022/06/03 06:20:46;;;;;;;7.35;3.17;;;;;;;42.80;32.06;95055.13;5069897;28;20649;-81
2022/06/03 06:23:18;;;;;;;3.40;2.30;;;;;;;43.14;31.73;95050.47;5068784;28;20196;-82
2022/06/03 06:26:20;;;;;;;5.35;3.15;;;;;;;43.55;31.12;95064.81;5070561;28;20201;-82
2022/06/03 06:29:04;;;;;;;9.90;3.33;;;;;;;43.93;30.65;95067.09;5070617;28;20208;-81
2022/06/03 06:31:52;;;;;;;7.90;2.72;;;;;;;44.30;30.16;95061.59;5072629;28;20268;-81
2022/06/03 06:34:41;;;;;;;3.83;3.05;;;;;;;44.56;29.97;95048.44;5070019;28;20581;-81
2022/06/03 06:37:48;;;;;;;3.85;3.45;;;;;;;44.97;29.20;95051.00;5070160;28;20190;-81
2022/06/03 06:40:32;;;;;;;6.93;3.13;;;;;;;45.26;28.95;95047.84;5008336;28;20196;-82
2022/06/03 06:43:11;;;;;;;4.47;3.22;;;;;;;45.61;28.40;95054.44;5008071;28;20192;-81
2022/06/03 06:45:54;;;;;;;8.48;3.45;;;;;;;45.87;28.00;95059.25;5007365;28;20195;-81
2022/06/03 06:48:42;;;;;;;3.45;2.80;;;;;;;46.07;28.31;95039.16;5007717;28;20228;-81
2022/06/03 06:51:27;;;;;;;5.38;3.22;;;;;;;46.40;27.71;95054.13;5007744;28;20211;-81
2022/06/03 06:54:00;;;;;;;4.03;3.08;;;;;;;46.64;27.22;95053.03;5007675;28;20202;-81
2022/06/03 06:56:36;;;;;;;4.22;2.97;;;;;;;46.85;26.71;95053.38;5007205;28;20195;-81
2022/06/03 06:59:08;;;;;;;5.35;2.92;;;;;;;47.02;26.88;95049.41;5007640;28;20579;-82
2022/06/03 07:01:40;;;;;;;4.07;2.88;;;;;;;47.23;26.33;95055.16;5009633;28;20194;-80
2022/06/03 07:04:11;;;;;;;5.90;3.08;;;;;;;47.41;26.24;95052.75;5007848;28;20191;-81
2022/06/03 07:06:42;;;;;;;5.07;2.72;;;;;;;47.60;26.06;95051.84;5008274;28;20203;-79
2022/06/03 07:09:48;;;;;;;5.82;2.80;;;;;;;47.80;25.54;95057.94;5007915;28;20334;-80
2022/06/03 07:12:18;;;;;;;7.13;2.90;;;;;;;47.93;25.60;95053.06;4984415;28;20751;-82
2022/06/03 07:14:57;;;;;;;9.70;3.03;;;;;;;48.08;25.37;95052.13;4993026;28;20334;-80
2022/06/03 07:20:28;;;;;;;8.25;3.53;;;;;;;48.24;25.00;95036.41;4990063;28;20256;-79
2022/06/03 07:22:58;;;;;;;3.15;2.55;;;;;;;48.36;25.14;95035.34;4999358;28;20196;-80
2022/06/03 07:25:29;;;;;;;5.78;2.78;;;;;;;48.49;24.55;95038.59;4995921;28;20212;-80
2022/06/03 07:28:03;;;;;;;7.60;3.17;;;;;;;48.52;24.81;95035.16;4997676;28;20193;-80
2022/06/03 07:30:40;;;;;;;4.18;3.08;;;;;;;48.60;24.21;95042.22;4986983;28;20232;-81
2022/06/03 07:33:14;;;;;;;10.40;3.35;;;;;;;48.67;24.01;95039.56;4992924;28;20220;-81
2022/06/03 07:35:47;;;;;;;4.70;2.55;;;;;;;48.63;23.78;95032.56;4985892;28;20682;-82
2022/06/03 07:38:22;;;;;;;5.93;3.00;;;;;;;48.72;24.33;95044.66;4993339;28;20203;-82
2022/06/03 07:40:52;;;;;;;5.88;2.88;;;;;;;48.74;24.13;95039.63;4994780;28;20197;-80
2022/06/03 07:43:29;;;;;;;3.80;2.75;;;;;;;48.72;23.52;95046.59;5040331;28;20666;-81
2022/06/03 07:45:59;;;;;;;3.63;2.72;;;;;;;48.72;23.48;95052.81;5069298;28;20194;-80
2022/06/03 07:48:29;;;;;;;8.13;3.40;;;;;;;48.67;23.38;95061.31;5069249;28;20221;-81
2022/06/03 07:50:59;;;;;;;6.72;3.00;;;;;;;48.55;23.77;95049.94;5069256;28;20619;-81
2022/06/03 07:53:37;;;;;;;7.78;3.33;;;;;;;48.60;23.47;95066.66;5069583;28;20200;-80
2022/06/03 07:56:04;;;;;;;6.57;3.65;;;;;;;48.59;23.39;95069.75;5068906;28;20193;-81
2022/06/03 07:58:37;;;;;;;5.22;3.05;;;;;;;48.58;23.27;95074.41;5069243;28;20588;-81
2022/06/03 08:01:05;;;;;;;5.80;2.90;;;;;;;48.56;23.48;95070.50;5070925;28;20188;-81
2022/06/03 08:03:37;;;;;;;5.55;3.13;;;;;;;48.53;23.74;95069.28;5069472;28;20185;-80
2022/06/03 08:06:08;;;;;;;4.55;2.95;;;;;;;48.38;23.69;95073.00;5069149;28;20257;-81
2022/06/03 08:11:30;;;;;;;6.00;3.15;;;;;;;47.80;23.71;95073.44;5072715;28;20185;-79
2022/06/03 08:14:01;;;;;;;4.03;3.15;;;;;;;47.59;23.51;95065.75;5075288;28;20189;-78
2022/06/03 08:16:33;;;;;;;4.95;3.08;;;;;;;47.35;23.77;95067.75;5072893;28;20273;-81
2022/06/03 08:19:06;;;;;;;4.93;3.35;;;;;;;47.06;23.45;95071.16;5075844;28;20657;-79
2022/06/03 08:21:38;;;;;;;6.20;3.47;;;;;;;46.77;23.82;95076.09;5072675;28;20186;-79
2022/06/03 08:24:08;;;;;;;4.55;3.10;;;;;;;46.53;23.77;95069.03;5070810;28;20664;-78
2022/06/03 08:26:36;;;;;;;3.58;3.20;;;;;;;46.35;24.14;95079.56;5072734;28;20190;-79
2022/06/03 08:29:13;;;;;;;4.07;3.05;;;;;;;46.19;24.76;95076.13;5072691;28;20197;-81
2022/06/03 08:31:41;;;;;;;5.43;3.15;;;;;;;46.00;24.48;95083.09;5072886;28;20189;-81
2022/06/03 08:34:15;;;;;;;4.63;3.10;;;;;;;45.66;24.65;95060.34;5072086;28;20217;-81
2022/06/03 08:36:42;;;;;;;7.40;3.53;;;;;;;45.50;24.86;95078.50;5071293;28;20197;-80
2022/06/03 08:39:15;;;;;;;7.60;3.92;;;;;;;45.20;24.86;95073.56;5072890;28;20189;-80
2022/06/03 08:41:56;;;;;;;8.55;3.75;;;;;;;44.92;25.74;95073.63;5072490;28;20274;-80
2022/06/03 08:44:34;;;;;;;5.78;3.78;;;;;;;44.55;25.76;95071.13;5074816;28;20209;-79
2022/06/03 08:47:07;;;;;;;6.60;3.63;;;;;;;44.22;25.68;95073.31;5070965;28;20316;-81
2022/06/03 08:49:46;;;;;;;10.23;4.40;;;;;;;43.80;26.26;95069.03;5072106;28;20705;-80
2022/06/03 08:52:15;;;;;;;5.88;3.60;;;;;;;43.62;26.07;95089.28;5071019;28;20613;-80
2022/06/03 08:54:49;;;;;;;5.32;3.70;;;;;;;43.43;26.47;95078.25;5072456;28;20201;-79
2022/06/03 08:57:24;;;;;;;7.18;3.60;;;;;;;43.23;26.38;95075.38;5073723;28;20258;-81
2022/06/03 08:59:58;;;;;;;7.13;3.70;;;;;;;43.11;27.10;95080.75;5073189;28;20194;-80
2022/06/03 09:02:32;;;;;;;5.72;3.85;;;;;;;42.97;27.02;95081.03;5072287;28;20199;-79
2022/06/03 09:05:04;;;;;;;4.25;3.58;;;;;;;42.93;27.19;95088.22;5073412;28;20565;-79
2022/06/03 09:07:41;;;;;;;4.22;3.63;;;;;;;42.87;27.27;95092.22;5072021;28;20193;-79
2022/06/03 09:10:16;;;;;;;3.92;3.40;;;;;;;42.76;27.48;95089.19;5072309;28;20232;-80
2022/06/03 09:12:54;;;;;;;9.95;3.88;;;;;;;42.64;27.40;95083.00;5071826;28;20185;-78
2022/06/03 09:15:26;;;;;;;11.90;3.65;;;;;;;42.54;27.46;95095.72;5072084;28;20588;-80
2022/06/03 09:17:59;;;;;;;5.30;3.40;;;;;;;42.49;27.58;95082.50;5071826;28;20182;-81
2022/06/03 09:20:33;;;;;;;4.40;3.45;;;;;;;42.41;27.83;95077.19;5070782;28;20189;-80
2022/06/03 09:23:05;;;;;;;5.65;3.25;;;;;;;42.39;27.33;95082.09;5071500;28;20222;-80
2022/06/03 09:25:32;;;;;;;5.18;3.28;;;;;;;42.31;27.47;95081.06;5070220;28;20213;-82
2022/06/03 09:28:04;;;;;;;3.22;2.92;;;;;;;42.23;27.57;95074.66;5073639;28;20178;-80
2022/06/03 09:30:38;;;;;;;8.93;3.15;;;;;;;42.15;27.78;95091.63;5071123;28;20248;-80
2022/06/03 09:33:11;;;;;;;6.78;3.53;;;;;;;42.03;27.73;95081.59;5075476;28;20193;-80
2022/06/03 09:35:40;;;;;;;3.65;3.00;;;;;;;41.88;27.87;95097.53;5075981;28;20193;-80
2022/06/03 09:38:10;;;;;;;8.02;3.45;;;;;;;41.62;27.76;95085.03;5073145;28;20189;-79
2022/06/03 09:40:42;;;;;;;7.88;3.85;;;;;;;41.45;28.14;95093.19;5072502;28;20220;-80
2022/06/03 09:43:16;;;;;;;4.60;3.83;;;;;;;41.22;28.30;95081.91;5071880;28;20202;-80
2022/06/03 09:45:49;;;;;;;6.20;3.92;;;;;;;41.07;28.37;95094.78;5071677;28;20197;-80
2022/06/03 09:48:20;;;;;;;4.97;3.10;;;;;;;40.87;28.26;95084.69;5072137;28;20226;-80
2022/06/03 09:50:48;;;;;;;7.43;3.75;;;;;;;40.66;28.33;95087.28;5068362;28;20226;-80
2022/06/03 09:53:19;;;;;;;7.85;3.67;;;;;;;40.45;28.38;95089.81;5071235;28;20186;-81
2022/06/03 09:55:51;;;;;;;4.40;3.50;;;;;;;40.16;28.28;95082.47;5071486;28;20183;-80
2022/06/03 09:58:22;;;;;;;4.88;3.15;;;;;;;39.98;28.39;95075.47;5070714;28;20198;-80
2022/06/03 10:00:52;;;;;;;11.32;3.47;;;;;;;39.86;28.62;95092.19;5071075;28;20190;-79
2022/06/03 10:03:21;;;;;;;6.45;2.92;;;;;;;39.65;28.67;95094.66;5070972;28;20209;-81
2022/06/03 10:05:51;;;;;;;5.78;3.53;;;;;;;39.49;28.71;95093.50;5070861;28;20186;-79
2022/06/03 10:08:20;;;;;;;6.50;3.63;;;;;;;39.34;28.72;95094.75;5070670;28;20691;-81
2022/06/03 10:13:47;;;;;;;4.93;3.40;;;;;;;38.96;29.05;95081.81;5027915;28;20218;-80
2022/06/03 10:16:16;;;;;;;6.22;3.00;;;;;;;38.85;29.16;95085.84;5028572;28;20670;-75
2022/06/03 10:18:46;;;;;;;5.38;3.13;;;;;;;38.72;29.38;95087.50;5028262;28;20282;-79
2022/06/03 10:21:32;;;;;;;7.35;3.10;;;;;;;38.60;29.55;95088.06;5024431;28;20591;-78
2022/06/03 10:24:01;;;;;;;6.00;3.38;;;;;;;38.45;29.66;95079.63;5025948;28;20223;-80
2022/06/03 10:26:30;;;;;;;4.10;3.40;;;;;;;38.38;29.80;95088.84;5027667;28;20195;-79
2022/06/03 10:29:06;;;;;;;6.22;3.28;;;;;;;38.27;29.97;95082.16;5025549;28;20195;-79
2022/06/03 10:31:36;;;;;;;5.35;3.22;;;;;;;38.20;30.04;95089.00;5024505;28;20588;-79
2022/06/03 10:34:06;;;;;;;4.00;3.28;;;;;;;38.08;30.15;95093.00;5025276;28;20195;-78
2022/06/03 10:36:36;;;;;;;8.63;4.55;;;;;;;37.93;30.17;95077.34;5025270;28;20191;-75
2022/06/03 10:39:03;;;;;;;4.68;3.15;;;;;;;37.89;30.40;95081.69;5025288;28;20191;-80
2022/06/03 10:41:36;;;;;;;5.10;3.30;;;;;;;37.82;30.59;95087.41;5024428;28;20607;-78
2022/06/03 10:44:10;;;;;;;4.05;3.58;;;;;;;37.77;30.65;95084.06;5034433;28;20201;-80
2022/06/03 10:46:40;;;;;;;7.72;3.53;;;;;;;37.72;30.96;95081.53;5066448;28;20669;-85
2022/06/03 10:49:12;;;;;;;6.57;3.67;;;;;;;37.61;31.11;95073.75;5068449;28;20194;-84
2022/06/03 11:03:07;;;;;;;7.35;3.45;;;;;;;37.32;31.10;95052.69;5070036;28;20205;-80
2022/06/03 11:05:37;;;;;;;6.28;3.35;;;;;;;37.20;31.21;95038.28;5067608;28;20190;-79
2022/06/03 11:08:07;;;;;;;4.05;3.70;;;;;;;37.17;31.29;95050.31;5070388;28;20273;-77
2022/06/03 11:10:40;;;;;;;7.68;3.50;;;;;;;37.09;31.30;95041.16;5072080;28;20210;-77
2022/06/03 11:13:09;;;;;;;4.80;3.30;;;;;;;36.98;31.21;95036.31;5069566;28;20248;-78
2022/06/03 11:15:38;;;;;;;4.60;3.25;;;;;;;36.95;31.20;95029.69;5069745;28;20190;-78
2022/06/03 11:18:18;;;;;;;3.90;3.10;;;;;;;36.86;31.14;95031.44;5070682;28;20186;-79
2022/06/03 11:20:47;;;;;;;4.78;3.78;;;;;;;36.68;31.37;95015.22;5067849;28;20202;-78
2022/06/03 11:23:15;;;;;;;6.10;3.42;;;;;;;36.74;31.20;95028.44;5071170;28;20190;-79
2022/06/03 11:25:46;;;;;;;4.30;3.30;;;;;;;36.68;31.12;95017.88;5069384;28;20795;-78
2022/06/03 11:28:16;;;;;;;6.95;3.42;;;;;;;36.63;31.51;95025.97;5069501;28;20240;-79
2022/06/03 11:30:48;;;;;;;5.28;3.38;;;;;;;36.35;31.41;94979.03;5069390;28;20218;-79
2022/06/03 11:33:21;;;;;;;5.85;3.55;;;;;;;36.54;31.30;95008.31;5069428;28;20209;-77
2022/06/03 11:35:52;;;;;;;4.88;3.10;;;;;;;36.45;31.41;95005.53;5069615;28;20597;-76
2022/06/03 11:38:28;;;;;;;4.90;3.30;;;;;;;36.37;31.45;94998.19;5072447;28;20273;-75
2022/06/03 11:40:58;;;;;;;3.80;3.50;;;;;;;36.33;31.76;95000.63;5068509;28;20182;-78
2022/06/03 11:43:35;;;;;;;3.60;3.30;;;;;;;36.03;31.96;94972.63;5069166;28;20197;-77
2022/06/03 11:46:05;;;;;;;12.40;4.07;;;;;;;36.10;32.26;94999.69;5067633;28;20889;-78
2022/06/03 11:48:36;;;;;;;7.72;3.50;;;;;;;35.84;32.29;94956.69;5070022;28;20230;-78
2022/06/03 11:51:03;;;;;;;6.57;3.42;;;;;;;36.01;32.06;94989.97;5070094;28;20213;-74
2022/06/03 11:53:33;;;;;;;4.57;3.80;;;;;;;35.95;32.46;94983.94;5068767;28;20198;-73
2022/06/03 11:56:03;;;;;;;5.85;3.50;;;;;;;35.94;32.26;94991.13;5067091;28;20606;-73
2022/06/03 11:58:41;;;;;;;5.25;3.50;;;;;;;35.91;32.48;94999.69;5067131;28;20194;-76
2022/06/03 12:01:15;;;;;;;5.68;3.22;;;;;;;35.88;32.25;94984.31;5069428;28;20213;-76
2022/06/03 12:03:51;;;;;;;3.45;3.20;;;;;;;35.84;32.10;94983.31;5067653;28;20198;-77
2022/06/03 12:06:22;;;;;;;4.90;3.33;;;;;;;35.85;32.20;94990.22;5069117;28;20197;-73
2022/06/03 12:08:56;;;;;;;6.05;3.72;;;;;;;35.83;32.36;94988.91;5067350;28;20194;-72
2022/06/03 12:14:31;;;;;;;5.00;3.35;;;;;;;35.78;32.38;94987.09;5048887;28;20190;-75
2022/06/03 12:17:01;;;;;;;5.65;3.53;;;;;;;35.75;32.25;94984.22;5068936;28;20653;-75
2022/06/03 12:19:43;;;;;;;6.15;4.10;;;;;;;35.62;32.41;94975.94;5070453;28;20198;-74
2022/06/03 12:22:36;;;;;;;6.30;3.70;;;;;;;35.58;32.39;94984.75;5068357;28;20202;-75
2022/06/03 12:25:05;;;;;;;3.20;3.00;;;;;;;35.49;32.75;94981.94;5064172;28;20667;-75
2022/06/03 12:27:35;;;;;;;7.03;3.30;;;;;;;35.39;32.69;94982.84;5069078;28;20186;-73
2022/06/03 12:30:37;;;;;;;7.60;3.67;;;;;;;35.28;32.79;94978.78;5069149;28;20197;-74
2022/06/03 12:33:08;;;;;;;9.98;3.63;;;;;;;35.18;32.62;94986.84;5008985;28;20192;-74
2022/06/03 12:36:08;;;;;;;4.28;2.88;;;;;;;35.08;32.54;94989.66;5006829;28;22159;-78
2022/06/03 12:38:54;;;;;;;3.80;3.22;;;;;;;34.97;32.92;94980.19;5004350;28;20207;-74
2022/06/03 12:41:59;;;;;;;6.50;3.40;;;;;;;34.85;32.71;94985.94;5006888;28;20196;-76
2022/06/03 12:44:58;;;;;;;7.30;3.47;;;;;;;34.75;32.74;94992.13;5006967;28;20254;-74
2022/06/03 12:47:44;;;;;;;3.25;2.58;;;;;;;34.67;32.59;94982.09;4947362;29;20225;-74
2022/06/03 12:50:39;;;;;;;4.15;3.00;;;;;;;34.60;33.09;94985.13;4945202;29;20225;-77
2022/06/03 12:53:42;;;;;;;7.85;3.65;;;;;;;34.53;33.17;94984.66;4891045;29;20208;-74
2022/06/03 12:56:25;;;;;;;8.23;3.40;;;;;;;34.45;33.31;94980.72;4893080;29;20196;-76
2022/06/03 12:59:02;;;;;;;4.60;3.10;;;;;;;34.42;33.02;94985.81;4893200;29;20232;-75
2022/06/03 13:01:49;;;;;;;7.13;3.10;;;;;;;34.39;33.39;94981.84;4894266;29;20251;-76
2022/06/03 13:04:44;;;;;;;4.10;3.17;;;;;;;34.37;33.26;94989.31;4893073;29;20650;-74
2022/06/03 13:07:34;;;;;;;4.50;3.00;;;;;;;34.34;33.12;94981.09;4894468;29;20715;-74
2022/06/03 13:10:52;;;;;;;4.00;3.60;;;;;;;34.32;33.41;94981.38;4949473;29;20237;-77
2022/06/03 13:13:51;;;;;;;6.85;3.78;;;;;;;34.30;33.25;94983.53;4951574;29;20285;-76
2022/06/03 13:16:46;;;;;;;9.65;4.03;;;;;;;34.28;33.35;94990.97;4894658;29;20195;-74
2022/06/03 13:19:44;;;;;;;6.40;3.33;;;;;;;34.29;33.32;94995.22;4892503;29;20201;-74
2022/06/03 13:22:19;;;;;;;5.95;3.63;;;;;;;34.30;33.16;94988.06;4894124;29;20208;-75
2022/06/03 13:25:28;;;;;;;5.68;3.60;;;;;;;34.31;33.36;94989.63;4926331;28;20201;-75
2022/06/03 13:28:07;;;;;;;4.07;2.92;;;;;;;34.24;33.25;94984.63;4949188;28;20913;-77
2022/06/03 13:30:38;;;;;;;4.38;3.42;;;;;;;34.28;33.37;94985.66;5004715;28;20730;-76
2022/06/03 13:33:18;;;;;;;7.25;3.58;;;;;;;34.30;33.50;94985.41;5032134;28;20279;-77